sensor_id;sensor_type;location;lat;lon;timestamp;P1;durP1;ratioP1;P2;durP2;ratioP2
54430;SDS011;40342;52.998;5.862;2023-06-19T00:02:02;5.40;;;4.90;;
54430;SDS011;40342;52.998;5.862;2023-06-19T00:04:28;5.57;;;5.13;;
54430;SDS011;40342;52.998;5.862;2023-06-19T00:06:53;5.05;;;4.65;;
54430;SDS011;40342;52.998;5.862;2023-06-19T00:09:19;5.30;;;4.80;;
54430;SDS011;40342;52.998;5.862;2023-06-19T00:11:45;6.28;;;5.10;;
54430;SDS011;40342;52.998;5.862;2023-06-19T00:14:11;6.65;;;4.90;;
54430;SDS011;40342;52.998;5.862;2023-06-19T00:16:36;5.82;;;5.20;;
54430;SDS011;40342;52.998;5.862;2023-06-19T00:19:02;5.47;;;5.07;;
54430;SDS011;40342;52.998;5.862;2023-06-19T00:21:28;5.97;;;5.22;;
54430;SDS011;40342;52.998;5.862;2023-06-19T00:23:54;5.90;;;5.32;;
54430;SDS011;40342;52.998;5.862;2023-06-19T00:26:21;5.65;;;4.82;;
54430;SDS011;40342;52.998;5.862;2023-06-19T00:28:50;5.40;;;4.90;;
54430;SDS011;40342;52.998;5.862;2023-06-19T00:31:16;6.40;;;4.80;;
54430;SDS011;40342;52.998;5.862;2023-06-19T00:33:44;5.75;;;5.25;;
54430;SDS011;40342;52.998;5.862;2023-06-19T00:36:14;6.25;;;4.85;;
54430;SDS011;40342;52.998;5.862;2023-06-19T00:38:41;5.50;;;5.00;;
54430;SDS011;40342;52.998;5.862;2023-06-19T00:41:07;5.22;;;4.72;;
54430;SDS011;40342;52.998;5.862;2023-06-19T00:43:33;7.20;;;5.00;;
54430;SDS011;40342;52.998;5.862;2023-06-19T00:45:59;5.60;;;4.97;;
54430;SDS011;40342;52.998;5.862;2023-06-19T00:48:26;4.72;;;4.43;;
54430;SDS011;40342;52.998;5.862;2023-06-19T00:50:53;5.18;;;4.70;;
54430;SDS011;40342;52.998;5.862;2023-06-19T00:53:21;6.18;;;5.47;;
54430;SDS011;40342;52.998;5.862;2023-06-19T00:55:47;5.43;;;4.93;;
54430;SDS011;40342;52.998;5.862;2023-06-19T00:58:16;5.07;;;4.68;;
54430;SDS011;40342;52.998;5.862;2023-06-19T01:00:42;6.10;;;5.30;;
54430;SDS011;40342;52.998;5.862;2023-06-19T01:03:08;5.70;;;5.22;;
54430;SDS011;40342;52.998;5.862;2023-06-19T01:05:34;5.47;;;4.80;;
54430;SDS011;40342;52.998;5.862;2023-06-19T01:10:38;6.60;;;5.25;;
54430;SDS011;40342;52.998;5.862;2023-06-19T01:15:43;5.80;;;5.30;;
54430;SDS011;40342;52.998;5.862;2023-06-19T01:18:09;7.90;;;4.80;;
54430;SDS011;40342;52.998;5.862;2023-06-19T01:20:38;5.72;;;5.30;;
54430;SDS011;40342;52.998;5.862;2023-06-19T01:23:10;5.38;;;4.88;;
54430;SDS011;40342;52.998;5.862;2023-06-19T01:28:02;6.32;;;4.95;;
54430;SDS011;40342;52.998;5.862;2023-06-19T01:30:31;6.97;;;5.10;;
54430;SDS011;40342;52.998;5.862;2023-06-19T01:32:58;5.90;;;5.30;;
54430;SDS011;40342;52.998;5.862;2023-06-19T01:35:29;6.80;;;5.20;;
54430;SDS011;40342;52.998;5.862;2023-06-19T01:37:59;5.57;;;5.07;;
54430;SDS011;40342;52.998;5.862;2023-06-19T01:40:26;6.85;;;5.25;;
54430;SDS011;40342;52.998;5.862;2023-06-19T01:42:56;6.13;;;5.00;;
54430;SDS011;40342;52.998;5.862;2023-06-19T01:45:25;5.38;;;4.93;;
54430;SDS011;40342;52.998;5.862;2023-06-19T01:47:54;5.20;;;4.80;;
54430;SDS011;40342;52.998;5.862;2023-06-19T01:50:23;5.35;;;4.90;;
54430;SDS011;40342;52.998;5.862;2023-06-19T01:52:49;5.53;;;5.00;;
54430;SDS011;40342;52.998;5.862;2023-06-19T01:55:16;6.13;;;5.28;;
54430;SDS011;40342;52.998;5.862;2023-06-19T01:57:42;5.68;;;4.45;;
54430;SDS011;40342;52.998;5.862;2023-06-19T02:00:07;5.95;;;4.95;;
54430;SDS011;40342;52.998;5.862;2023-06-19T02:02:35;5.40;;;4.90;;
54430;SDS011;40342;52.998;5.862;2023-06-19T02:05:03;5.63;;;5.03;;
54430;SDS011;40342;52.998;5.862;2023-06-19T02:07:29;7.00;;;5.40;;
54430;SDS011;40342;52.998;5.862;2023-06-19T02:09:55;5.50;;;5.10;;
54430;SDS011;40342;52.998;5.862;2023-06-19T02:12:21;5.28;;;4.78;;
54430;SDS011;40342;52.998;5.862;2023-06-19T02:14:47;5.78;;;5.28;;
54430;SDS011;40342;52.998;5.862;2023-06-19T02:17:13;7.05;;;5.10;;
54430;SDS011;40342;52.998;5.862;2023-06-19T02:19:39;6.45;;;5.38;;
54430;SDS011;40342;52.998;5.862;2023-06-19T02:22:05;5.43;;;4.93;;
54430;SDS011;40342;52.998;5.862;2023-06-19T02:24:31;5.85;;;5.15;;
54430;SDS011;40342;52.998;5.862;2023-06-19T02:26:57;6.15;;;5.55;;
54430;SDS011;40342;52.998;5.862;2023-06-19T02:29:23;5.90;;;5.40;;
54430;SDS011;40342;52.998;5.862;2023-06-19T02:31:49;5.90;;;5.50;;
54430;SDS011;40342;52.998;5.862;2023-06-19T02:34:15;6.47;;;5.80;;
54430;SDS011;40342;52.998;5.862;2023-06-19T02:36:41;5.85;;;5.35;;
54430;SDS011;40342;52.998;5.862;2023-06-19T02:39:07;5.95;;;5.40;;
54430;SDS011;40342;52.998;5.862;2023-06-19T02:41:33;5.70;;;5.20;;
54430;SDS011;40342;52.998;5.862;2023-06-19T02:43:59;6.13;;;5.05;;
54430;SDS011;40342;52.998;5.862;2023-06-19T02:46:24;5.43;;;4.93;;
54430;SDS011;40342;52.998;5.862;2023-06-19T02:48:50;6.50;;;5.53;;
54430;SDS011;40342;52.998;5.862;2023-06-19T02:51:15;7.18;;;5.20;;
54430;SDS011;40342;52.998;5.862;2023-06-19T02:53:41;5.20;;;4.78;;
54430;SDS011;40342;52.998;5.862;2023-06-19T02:56:08;5.90;;;5.30;;
54430;SDS011;40342;52.998;5.862;2023-06-19T02:58:34;5.45;;;5.05;;
54430;SDS011;40342;52.998;5.862;2023-06-19T03:01:02;5.15;;;4.65;;
54430;SDS011;40342;52.998;5.862;2023-06-19T03:03:28;5.30;;;4.90;;
54430;SDS011;40342;52.998;5.862;2023-06-19T03:05:54;5.00;;;4.60;;
54430;SDS011;40342;52.998;5.862;2023-06-19T03:08:20;5.38;;;4.97;;
54430;SDS011;40342;52.998;5.862;2023-06-19T03:10:45;4.88;;;4.47;;
54430;SDS011;40342;52.998;5.862;2023-06-19T03:13:12;5.20;;;4.80;;
54430;SDS011;40342;52.998;5.862;2023-06-19T03:15:38;5.05;;;4.50;;
54430;SDS011;40342;52.998;5.862;2023-06-19T03:18:03;6.50;;;4.07;;
54430;SDS011;40342;52.998;5.862;2023-06-19T03:20:31;5.43;;;3.10;;
54430;SDS011;40342;52.998;5.862;2023-06-19T03:22:57;3.60;;;3.00;;
54430;SDS011;40342;52.998;5.862;2023-06-19T03:25:23;4.10;;;2.00;;
54430;SDS011;40342;52.998;5.862;2023-06-19T03:27:48;3.97;;;2.25;;
54430;SDS011;40342;52.998;5.862;2023-06-19T03:30:14;2.33;;;2.20;;
54430;SDS011;40342;52.998;5.862;2023-06-19T03:32:43;2.15;;;1.90;;
54430;SDS011;40342;52.998;5.862;2023-06-19T03:35:09;2.25;;;2.15;;
54430;SDS011;40342;52.998;5.862;2023-06-19T03:37:35;3.63;;;2.00;;
54430;SDS011;40342;52.998;5.862;2023-06-19T03:40:01;2.35;;;2.00;;
54430;SDS011;40342;52.998;5.862;2023-06-19T03:42:28;5.90;;;2.13;;
54430;SDS011;40342;52.998;5.862;2023-06-19T03:44:54;3.42;;;2.05;;
54430;SDS011;40342;52.998;5.862;2023-06-19T03:47:19;3.78;;;2.05;;
54430;SDS011;40342;52.998;5.862;2023-06-19T03:49:45;3.85;;;1.90;;
54430;SDS011;40342;52.998;5.862;2023-06-19T03:52:13;3.38;;;1.80;;
54430;SDS011;40342;52.998;5.862;2023-06-19T03:54:39;2.20;;;2.10;;
54430;SDS011;40342;52.998;5.862;2023-06-19T03:57:04;2.92;;;1.60;;
54430;SDS011;40342;52.998;5.862;2023-06-19T03:59:31;2.63;;;1.90;;
54430;SDS011;40342;52.998;5.862;2023-06-19T04:01:56;2.30;;;2.00;;
54430;SDS011;40342;52.998;5.862;2023-06-19T04:04:22;1.92;;;1.83;;
54430;SDS011;40342;52.998;5.862;2023-06-19T04:06:47;2.28;;;1.80;;
54430;SDS011;40342;52.998;5.862;2023-06-19T04:09:13;3.90;;;1.80;;
54430;SDS011;40342;52.998;5.862;2023-06-19T04:11:39;3.10;;;2.20;;
54430;SDS011;40342;52.998;5.862;2023-06-19T04:14:04;2.30;;;2.10;;
54430;SDS011;40342;52.998;5.862;2023-06-19T04:16:30;2.20;;;2.00;;
54430;SDS011;40342;52.998;5.862;2023-06-19T04:18:55;2.80;;;2.50;;
54430;SDS011;40342;52.998;5.862;2023-06-19T04:21:21;2.88;;;2.67;;
54430;SDS011;40342;52.998;5.862;2023-06-19T04:23:46;4.07;;;2.45;;
54430;SDS011;40342;52.998;5.862;2023-06-19T04:26:12;2.78;;;2.47;;
54430;SDS011;40342;52.998;5.862;2023-06-19T04:28:37;2.45;;;2.25;;
54430;SDS011;40342;52.998;5.862;2023-06-19T04:31:04;5.22;;;2.70;;
54430;SDS011;40342;52.998;5.862;2023-06-19T04:33:30;3.35;;;3.00;;
54430;SDS011;40342;52.998;5.862;2023-06-19T04:35:57;3.40;;;3.10;;
54430;SDS011;40342;52.998;5.862;2023-06-19T04:38:22;3.80;;;3.40;;
54430;SDS011;40342;52.998;5.862;2023-06-19T04:40:49;3.33;;;3.08;;
54430;SDS011;40342;52.998;5.862;2023-06-19T04:43:17;3.55;;;3.22;;
54430;SDS011;40342;52.998;5.862;2023-06-19T04:45:43;5.57;;;3.75;;
54430;SDS011;40342;52.998;5.862;2023-06-19T04:48:08;3.92;;;3.70;;
54430;SDS011;40342;52.998;5.862;2023-06-19T04:50:34;3.80;;;3.50;;
54430;SDS011;40342;52.998;5.862;2023-06-19T04:53:00;3.72;;;3.53;;
54430;SDS011;40342;52.998;5.862;2023-06-19T04:55:26;4.20;;;3.80;;
54430;SDS011;40342;52.998;5.862;2023-06-19T04:57:51;5.90;;;4.05;;
54430;SDS011;40342;52.998;5.862;2023-06-19T05:00:17;4.43;;;4.13;;
54430;SDS011;40342;52.998;5.862;2023-06-19T05:02:48;5.15;;;4.55;;
54430;SDS011;40342;52.998;5.862;2023-06-19T05:05:14;5.22;;;4.72;;
54430;SDS011;40342;52.998;5.862;2023-06-19T05:07:40;5.47;;;4.25;;
54430;SDS011;40342;52.998;5.862;2023-06-19T05:10:06;5.78;;;4.72;;
54430;SDS011;40342;52.998;5.862;2023-06-19T05:12:33;5.15;;;4.75;;
54430;SDS011;40342;52.998;5.862;2023-06-19T05:15:00;8.65;;;5.68;;
54430;SDS011;40342;52.998;5.862;2023-06-19T05:17:25;8.38;;;7.20;;
54430;SDS011;40342;52.998;5.862;2023-06-19T05:19:51;11.40;;;9.15;;
54430;SDS011;40342;52.998;5.862;2023-06-19T05:22:17;10.27;;;9.23;;
54430;SDS011;40342;52.998;5.862;2023-06-19T05:24:43;10.27;;;8.68;;
54430;SDS011;40342;52.998;5.862;2023-06-19T05:27:09;11.00;;;9.95;;
54430;SDS011;40342;52.998;5.862;2023-06-19T05:29:35;11.43;;;10.23;;
54430;SDS011;40342;52.998;5.862;2023-06-19T05:32:00;12.48;;;11.30;;
54430;SDS011;40342;52.998;5.862;2023-06-19T05:34:26;13.60;;;12.30;;
54430;SDS011;40342;52.998;5.862;2023-06-19T05:36:52;14.27;;;12.07;;
54430;SDS011;40342;52.998;5.862;2023-06-19T05:39:17;15.68;;;13.13;;
54430;SDS011;40342;52.998;5.862;2023-06-19T05:41:44;18.77;;;14.90;;
54430;SDS011;40342;52.998;5.862;2023-06-19T05:44:10;19.27;;;14.48;;
54430;SDS011;40342;52.998;5.862;2023-06-19T05:46:40;17.02;;;14.35;;
54430;SDS011;40342;52.998;5.862;2023-06-19T05:49:05;16.58;;;14.90;;
54430;SDS011;40342;52.998;5.862;2023-06-19T05:51:31;18.08;;;15.68;;
54430;SDS011;40342;52.998;5.862;2023-06-19T05:53:56;24.23;;;15.52;;
54430;SDS011;40342;52.998;5.862;2023-06-19T05:56:28;15.32;;;13.65;;
54430;SDS011;40342;52.998;5.862;2023-06-19T05:58:54;14.20;;;12.88;;
54430;SDS011;40342;52.998;5.862;2023-06-19T06:01:19;15.82;;;14.32;;
54430;SDS011;40342;52.998;5.862;2023-06-19T06:03:45;23.15;;;16.27;;
54430;SDS011;40342;52.998;5.862;2023-06-19T06:06:10;17.35;;;15.55;;
54430;SDS011;40342;52.998;5.862;2023-06-19T06:08:36;27.63;;;16.17;;
54430;SDS011;40342;52.998;5.862;2023-06-19T06:11:01;21.77;;;16.83;;
54430;SDS011;40342;52.998;5.862;2023-06-19T06:13:27;24.33;;;17.63;;
54430;SDS011;40342;52.998;5.862;2023-06-19T06:15:53;27.20;;;17.95;;
54430;SDS011;40342;52.998;5.862;2023-06-19T06:18:18;21.73;;;18.63;;
54430;SDS011;40342;52.998;5.862;2023-06-19T06:20:44;26.60;;;20.08;;
54430;SDS011;40342;52.998;5.862;2023-06-19T06:23:10;25.05;;;19.85;;
54430;SDS011;40342;52.998;5.862;2023-06-19T06:25:35;23.85;;;19.65;;
54430;SDS011;40342;52.998;5.862;2023-06-19T06:28:01;27.45;;;20.85;;
54430;SDS011;40342;52.998;5.862;2023-06-19T06:30:26;27.23;;;22.25;;
54430;SDS011;40342;52.998;5.862;2023-06-19T06:32:53;28.15;;;23.00;;
54430;SDS011;40342;52.998;5.862;2023-06-19T06:35:21;37.30;;;23.45;;
54430;SDS011;40342;52.998;5.862;2023-06-19T06:37:46;25.85;;;21.63;;
54430;SDS011;40342;52.998;5.862;2023-06-19T06:40:14;27.95;;;19.48;;
54430;SDS011;40342;52.998;5.862;2023-06-19T06:42:40;22.58;;;18.42;;
54430;SDS011;40342;52.998;5.862;2023-06-19T06:45:06;23.77;;;17.70;;
54430;SDS011;40342;52.998;5.862;2023-06-19T06:47:32;26.83;;;18.98;;
54430;SDS011;40342;52.998;5.862;2023-06-19T06:49:58;28.50;;;20.90;;
54430;SDS011;40342;52.998;5.862;2023-06-19T06:52:23;24.83;;;20.15;;
54430;SDS011;40342;52.998;5.862;2023-06-19T06:54:49;26.90;;;22.80;;
54430;SDS011;40342;52.998;5.862;2023-06-19T06:57:15;25.05;;;19.30;;
54430;SDS011;40342;52.998;5.862;2023-06-19T06:59:41;24.77;;;19.88;;
54430;SDS011;40342;52.998;5.862;2023-06-19T07:02:06;24.08;;;19.52;;
54430;SDS011;40342;52.998;5.862;2023-06-19T07:04:32;24.33;;;18.70;;
54430;SDS011;40342;52.998;5.862;2023-06-19T07:06:58;23.00;;;18.58;;
54430;SDS011;40342;52.998;5.862;2023-06-19T07:09:24;21.38;;;17.05;;
54430;SDS011;40342;52.998;5.862;2023-06-19T07:11:49;22.77;;;15.65;;
54430;SDS011;40342;52.998;5.862;2023-06-19T07:14:15;18.23;;;14.50;;
54430;SDS011;40342;52.998;5.862;2023-06-19T07:16:43;17.65;;;14.45;;
54430;SDS011;40342;52.998;5.862;2023-06-19T07:19:10;15.90;;;13.32;;
54430;SDS011;40342;52.998;5.862;2023-06-19T07:21:35;13.90;;;12.40;;
54430;SDS011;40342;52.998;5.862;2023-06-19T07:24:01;16.40;;;12.90;;
54430;SDS011;40342;52.998;5.862;2023-06-19T07:26:27;18.55;;;13.35;;
54430;SDS011;40342;52.998;5.862;2023-06-19T07:28:52;14.00;;;12.50;;
54430;SDS011;40342;52.998;5.862;2023-06-19T07:31:18;15.10;;;13.43;;
54430;SDS011;40342;52.998;5.862;2023-06-19T07:33:44;16.45;;;13.82;;
54430;SDS011;40342;52.998;5.862;2023-06-19T07:36:09;16.58;;;14.05;;
54430;SDS011;40342;52.998;5.862;2023-06-19T07:38:39;15.90;;;13.65;;
54430;SDS011;40342;52.998;5.862;2023-06-19T07:41:05;17.73;;;13.80;;
54430;SDS011;40342;52.998;5.862;2023-06-19T07:43:32;13.15;;;11.88;;
54430;SDS011;40342;52.998;5.862;2023-06-19T07:45:58;11.98;;;10.55;;
54430;SDS011;40342;52.998;5.862;2023-06-19T07:48:24;11.85;;;10.65;;
54430;SDS011;40342;52.998;5.862;2023-06-19T07:50:49;12.00;;;10.40;;
54430;SDS011;40342;52.998;5.862;2023-06-19T07:53:15;12.80;;;9.73;;
54430;SDS011;40342;52.998;5.862;2023-06-19T07:55:41;11.13;;;9.30;;
54430;SDS011;40342;52.998;5.862;2023-06-19T07:58:07;9.80;;;8.80;;
54430;SDS011;40342;52.998;5.862;2023-06-19T08:00:32;14.00;;;9.20;;
54430;SDS011;40342;52.998;5.862;2023-06-19T08:02:58;13.45;;;9.60;;
54430;SDS011;40342;52.998;5.862;2023-06-19T08:05:23;8.98;;;7.80;;
54430;SDS011;40342;52.998;5.862;2023-06-19T08:07:49;10.02;;;8.27;;
54430;SDS011;40342;52.998;5.862;2023-06-19T08:10:14;10.25;;;7.60;;
54430;SDS011;40342;52.998;5.862;2023-06-19T08:12:41;9.10;;;7.68;;
54430;SDS011;40342;52.998;5.862;2023-06-19T08:15:07;11.38;;;7.63;;
54430;SDS011;40342;52.998;5.862;2023-06-19T08:17:33;10.48;;;7.72;;
54430;SDS011;40342;52.998;5.862;2023-06-19T08:19:59;10.20;;;7.72;;
54430;SDS011;40342;52.998;5.862;2023-06-19T08:22:25;9.35;;;6.95;;
54430;SDS011;40342;52.998;5.862;2023-06-19T08:24:50;10.88;;;7.43;;
54430;SDS011;40342;52.998;5.862;2023-06-19T08:27:16;9.80;;;6.78;;
54430;SDS011;40342;52.998;5.862;2023-06-19T08:29:41;8.70;;;7.72;;
54430;SDS011;40342;52.998;5.862;2023-06-19T08:32:08;8.68;;;7.22;;
54430;SDS011;40342;52.998;5.862;2023-06-19T08:34:34;10.23;;;7.68;;
54430;SDS011;40342;52.998;5.862;2023-06-19T08:37:00;11.18;;;8.13;;
54430;SDS011;40342;52.998;5.862;2023-06-19T08:39:26;9.98;;;8.32;;
54430;SDS011;40342;52.998;5.862;2023-06-19T08:41:51;12.05;;;8.65;;
54430;SDS011;40342;52.998;5.862;2023-06-19T08:44:18;10.00;;;8.18;;
54430;SDS011;40342;52.998;5.862;2023-06-19T08:46:44;13.68;;;8.90;;
54430;SDS011;40342;52.998;5.862;2023-06-19T08:49:09;10.05;;;8.60;;
54430;SDS011;40342;52.998;5.862;2023-06-19T08:51:36;9.90;;;8.90;;
54430;SDS011;40342;52.998;5.862;2023-06-19T08:54:02;10.70;;;8.35;;
54430;SDS011;40342;52.998;5.862;2023-06-19T08:56:30;10.70;;;8.52;;
54430;SDS011;40342;52.998;5.862;2023-06-19T08:59:16;11.38;;;8.30;;
54430;SDS011;40342;52.998;5.862;2023-06-19T09:01:49;9.65;;;8.32;;
54430;SDS011;40342;52.998;5.862;2023-06-19T09:04:24;9.45;;;8.13;;
54430;SDS011;40342;52.998;5.862;2023-06-19T09:09:24;9.75;;;8.73;;
54430;SDS011;40342;52.998;5.862;2023-06-19T09:16:59;10.68;;;9.23;;
54430;SDS011;40342;52.998;5.862;2023-06-19T09:19:25;12.00;;;9.07;;
54430;SDS011;40342;52.998;5.862;2023-06-19T09:21:51;11.65;;;9.35;;
54430;SDS011;40342;52.998;5.862;2023-06-19T09:24:16;10.25;;;9.15;;
54430;SDS011;40342;52.998;5.862;2023-06-19T09:26:42;11.02;;;8.65;;
54430;SDS011;40342;52.998;5.862;2023-06-19T09:29:11;11.88;;;9.85;;
54430;SDS011;40342;52.998;5.862;2023-06-19T09:31:44;12.00;;;9.27;;
54430;SDS011;40342;52.998;5.862;2023-06-19T09:34:09;11.45;;;8.68;;
54430;SDS011;40342;52.998;5.862;2023-06-19T09:36:35;12.55;;;9.38;;
54430;SDS011;40342;52.998;5.862;2023-06-19T09:39:04;12.85;;;10.20;;
54430;SDS011;40342;52.998;5.862;2023-06-19T09:41:30;12.95;;;9.25;;
54430;SDS011;40342;52.998;5.862;2023-06-19T09:43:56;12.02;;;8.65;;
54430;SDS011;40342;52.998;5.862;2023-06-19T09:46:30;14.65;;;9.13;;
54430;SDS011;40342;52.998;5.862;2023-06-19T09:48:58;10.55;;;9.40;;
54430;SDS011;40342;52.998;5.862;2023-06-19T09:51:33;10.52;;;8.90;;
54430;SDS011;40342;52.998;5.862;2023-06-19T09:54:02;12.65;;;9.68;;
54430;SDS011;40342;52.998;5.862;2023-06-19T09:56:29;15.35;;;10.70;;
54430;SDS011;40342;52.998;5.862;2023-06-19T09:58:57;12.52;;;11.23;;
54430;SDS011;40342;52.998;5.862;2023-06-19T10:01:28;14.68;;;11.00;;
54430;SDS011;40342;52.998;5.862;2023-06-19T10:04:08;11.82;;;10.73;;
54430;SDS011;40342;52.998;5.862;2023-06-19T10:06:46;12.77;;;10.93;;
54430;SDS011;40342;52.998;5.862;2023-06-19T10:09:13;12.98;;;11.48;;
54430;SDS011;40342;52.998;5.862;2023-06-19T10:11:52;13.40;;;11.40;;
54430;SDS011;40342;52.998;5.862;2023-06-19T10:14:18;11.82;;;10.63;;
54430;SDS011;40342;52.998;5.862;2023-06-19T10:16:45;11.50;;;10.30;;
54430;SDS011;40342;52.998;5.862;2023-06-19T10:19:11;11.80;;;10.20;;
54430;SDS011;40342;52.998;5.862;2023-06-19T10:21:49;11.43;;;9.93;;
54430;SDS011;40342;52.998;5.862;2023-06-19T10:24:17;13.95;;;11.32;;
54430;SDS011;40342;52.998;5.862;2023-06-19T10:26:54;14.95;;;11.77;;
54430;SDS011;40342;52.998;5.862;2023-06-19T10:29:25;12.65;;;10.93;;
54430;SDS011;40342;52.998;5.862;2023-06-19T10:31:52;12.32;;;10.10;;
54430;SDS011;40342;52.998;5.862;2023-06-19T10:34:18;15.85;;;11.00;;
54430;SDS011;40342;52.998;5.862;2023-06-19T10:36:44;12.65;;;10.52;;
54430;SDS011;40342;52.998;5.862;2023-06-19T10:39:09;14.02;;;11.70;;
54430;SDS011;40342;52.998;5.862;2023-06-19T10:41:35;13.88;;;12.15;;
54430;SDS011;40342;52.998;5.862;2023-06-19T10:44:05;16.33;;;11.95;;
54430;SDS011;40342;52.998;5.862;2023-06-19T10:46:37;17.70;;;13.05;;
54430;SDS011;40342;52.998;5.862;2023-06-19T10:49:04;19.17;;;13.93;;
54430;SDS011;40342;52.998;5.862;2023-06-19T10:51:36;16.05;;;14.32;;
54430;SDS011;40342;52.998;5.862;2023-06-19T10:54:02;17.45;;;13.85;;
54430;SDS011;40342;52.998;5.862;2023-06-19T10:56:28;17.30;;;15.50;;
54430;SDS011;40342;52.998;5.862;2023-06-19T10:59:01;15.43;;;13.82;;
54430;SDS011;40342;52.998;5.862;2023-06-19T11:01:35;19.05;;;14.27;;
54430;SDS011;40342;52.998;5.862;2023-06-19T11:04:06;16.02;;;14.15;;
54430;SDS011;40342;52.998;5.862;2023-06-19T11:06:33;16.48;;;13.30;;
54430;SDS011;40342;52.998;5.862;2023-06-19T11:09:00;16.45;;;13.13;;
54430;SDS011;40342;52.998;5.862;2023-06-19T11:11:39;15.13;;;13.00;;
54430;SDS011;40342;52.998;5.862;2023-06-19T11:14:05;15.23;;;13.23;;
54430;SDS011;40342;52.998;5.862;2023-06-19T11:16:31;15.43;;;12.75;;
54430;SDS011;40342;52.998;5.862;2023-06-19T11:18:58;15.75;;;12.95;;
54430;SDS011;40342;52.998;5.862;2023-06-19T11:21:30;15.57;;;13.98;;
54430;SDS011;40342;52.998;5.862;2023-06-19T11:24:03;15.68;;;11.98;;
54430;SDS011;40342;52.998;5.862;2023-06-19T11:26:39;13.18;;;11.88;;
54430;SDS011;40342;52.998;5.862;2023-06-19T11:29:15;15.52;;;12.82;;
54430;SDS011;40342;52.998;5.862;2023-06-19T11:31:41;12.13;;;10.93;;
54430;SDS011;40342;52.998;5.862;2023-06-19T11:34:07;11.02;;;9.27;;
54430;SDS011;40342;52.998;5.862;2023-06-19T11:36:32;11.60;;;9.07;;
54430;SDS011;40342;52.998;5.862;2023-06-19T11:39:01;9.77;;;7.65;;
54430;SDS011;40342;52.998;5.862;2023-06-19T11:41:30;11.43;;;10.20;;
54430;SDS011;40342;52.998;5.862;2023-06-19T11:43:59;11.38;;;9.90;;
54430;SDS011;40342;52.998;5.862;2023-06-19T11:46:32;14.75;;;10.32;;
54430;SDS011;40342;52.998;5.862;2023-06-19T11:49:17;11.57;;;9.48;;
54430;SDS011;40342;52.998;5.862;2023-06-19T11:51:43;14.27;;;9.73;;
54430;SDS011;40342;52.998;5.862;2023-06-19T11:54:10;11.93;;;8.45;;
54430;SDS011;40342;52.998;5.862;2023-06-19T11:56:37;10.27;;;8.73;;
54430;SDS011;40342;52.998;5.862;2023-06-19T11:59:04;10.75;;;8.45;;
54430;SDS011;40342;52.998;5.862;2023-06-19T12:01:34;11.35;;;9.55;;
54430;SDS011;40342;52.998;5.862;2023-06-19T12:04:01;11.43;;;9.32;;
54430;SDS011;40342;52.998;5.862;2023-06-19T12:06:28;12.48;;;9.60;;
54430;SDS011;40342;52.998;5.862;2023-06-19T12:08:54;10.43;;;8.80;;
54430;SDS011;40342;52.998;5.862;2023-06-19T12:11:19;10.50;;;9.15;;
54430;SDS011;40342;52.998;5.862;2023-06-19T12:13:45;10.43;;;9.27;;
54430;SDS011;40342;52.998;5.862;2023-06-19T12:16:11;11.02;;;8.98;;
54430;SDS011;40342;52.998;5.862;2023-06-19T12:18:37;9.43;;;8.52;;
54430;SDS011;40342;52.998;5.862;2023-06-19T12:21:02;10.05;;;8.98;;
54430;SDS011;40342;52.998;5.862;2023-06-19T12:23:28;11.02;;;8.52;;
54430;SDS011;40342;52.998;5.862;2023-06-19T12:25:54;11.77;;;9.77;;
54430;SDS011;40342;52.998;5.862;2023-06-19T12:28:20;10.43;;;9.32;;
54430;SDS011;40342;52.998;5.862;2023-06-19T12:30:46;10.48;;;8.07;;
54430;SDS011;40342;52.998;5.862;2023-06-19T12:33:15;9.32;;;8.38;;
54430;SDS011;40342;52.998;5.862;2023-06-19T12:35:42;9.70;;;8.68;;
54430;SDS011;40342;52.998;5.862;2023-06-19T12:38:08;8.85;;;7.10;;
54430;SDS011;40342;52.998;5.862;2023-06-19T12:40:34;11.77;;;7.35;;
54430;SDS011;40342;52.998;5.862;2023-06-19T12:43:01;9.13;;;7.72;;
54430;SDS011;40342;52.998;5.862;2023-06-19T12:45:26;9.63;;;7.90;;
54430;SDS011;40342;52.998;5.862;2023-06-19T12:47:52;13.02;;;8.68;;
54430;SDS011;40342;52.998;5.862;2023-06-19T12:50:17;9.65;;;8.73;;
54430;SDS011;40342;52.998;5.862;2023-06-19T12:52:43;9.32;;;8.25;;
54430;SDS011;40342;52.998;5.862;2023-06-19T12:55:09;9.10;;;8.07;;
54430;SDS011;40342;52.998;5.862;2023-06-19T12:57:34;10.02;;;9.00;;
54430;SDS011;40342;52.998;5.862;2023-06-19T13:00:00;10.48;;;8.35;;
54430;SDS011;40342;52.998;5.862;2023-06-19T13:02:25;11.55;;;9.30;;
54430;SDS011;40342;52.998;5.862;2023-06-19T13:04:51;13.00;;;9.43;;
54430;SDS011;40342;52.998;5.862;2023-06-19T13:07:17;8.38;;;7.55;;
54430;SDS011;40342;52.998;5.862;2023-06-19T13:09:42;8.10;;;7.30;;
54430;SDS011;40342;52.998;5.862;2023-06-19T13:12:08;8.60;;;7.40;;
54430;SDS011;40342;52.998;5.862;2023-06-19T13:14:34;7.72;;;6.93;;
54430;SDS011;40342;52.998;5.862;2023-06-19T13:17:00;11.73;;;7.88;;
54430;SDS011;40342;52.998;5.862;2023-06-19T13:19:26;7.88;;;7.18;;
54430;SDS011;40342;52.998;5.862;2023-06-19T13:21:52;9.82;;;7.82;;
54430;SDS011;40342;52.998;5.862;2023-06-19T13:24:17;7.72;;;6.82;;
54430;SDS011;40342;52.998;5.862;2023-06-19T13:26:43;7.18;;;4.75;;
54430;SDS011;40342;52.998;5.862;2023-06-19T13:29:10;6.05;;;5.43;;
54430;SDS011;40342;52.998;5.862;2023-06-19T13:31:36;9.13;;;6.32;;
54430;SDS011;40342;52.998;5.862;2023-06-19T13:34:02;9.65;;;5.78;;
54430;SDS011;40342;52.998;5.862;2023-06-19T13:36:28;9.57;;;5.60;;
54430;SDS011;40342;52.998;5.862;2023-06-19T13:38:54;6.93;;;6.00;;
54430;SDS011;40342;52.998;5.862;2023-06-19T13:41:20;6.55;;;5.10;;
54430;SDS011;40342;52.998;5.862;2023-06-19T13:43:48;6.15;;;5.60;;
54430;SDS011;40342;52.998;5.862;2023-06-19T13:46:14;6.85;;;6.18;;
54430;SDS011;40342;52.998;5.862;2023-06-19T13:48:40;6.80;;;5.78;;
54430;SDS011;40342;52.998;5.862;2023-06-19T13:51:06;8.38;;;5.63;;
54430;SDS011;40342;52.998;5.862;2023-06-19T13:53:31;5.95;;;5.43;;
54430;SDS011;40342;52.998;5.862;2023-06-19T13:55:58;6.05;;;5.50;;
54430;SDS011;40342;52.998;5.862;2023-06-19T13:58:23;6.13;;;5.53;;
54430;SDS011;40342;52.998;5.862;2023-06-19T14:00:49;7.85;;;6.60;;
54430;SDS011;40342;52.998;5.862;2023-06-19T14:03:15;7.38;;;5.45;;
54430;SDS011;40342;52.998;5.862;2023-06-19T14:05:41;6.25;;;4.90;;
54430;SDS011;40342;52.998;5.862;2023-06-19T14:08:06;8.43;;;5.55;;
54430;SDS011;40342;52.998;5.862;2023-06-19T14:10:33;7.10;;;5.00;;
54430;SDS011;40342;52.998;5.862;2023-06-19T14:12:59;5.93;;;4.47;;
54430;SDS011;40342;52.998;5.862;2023-06-19T14:15:24;5.28;;;4.78;;
54430;SDS011;40342;52.998;5.862;2023-06-19T14:17:50;8.15;;;4.75;;
54430;SDS011;40342;52.998;5.862;2023-06-19T14:20:15;5.68;;;5.18;;
54430;SDS011;40342;52.998;5.862;2023-06-19T14:22:41;6.00;;;4.68;;
54430;SDS011;40342;52.998;5.862;2023-06-19T14:25:06;6.78;;;4.45;;
54430;SDS011;40342;52.998;5.862;2023-06-19T14:27:32;5.15;;;4.38;;
54430;SDS011;40342;52.998;5.862;2023-06-19T14:29:58;7.53;;;4.75;;
54430;SDS011;40342;52.998;5.862;2023-06-19T14:32:24;7.30;;;5.07;;
54430;SDS011;40342;52.998;5.862;2023-06-19T14:34:50;5.35;;;4.55;;
54430;SDS011;40342;52.998;5.862;2023-06-19T14:37:15;4.95;;;4.43;;
54430;SDS011;40342;52.998;5.862;2023-06-19T14:39:41;4.10;;;3.65;;
54430;SDS011;40342;52.998;5.862;2023-06-19T14:42:07;4.05;;;3.65;;
54430;SDS011;40342;52.998;5.862;2023-06-19T14:44:34;3.42;;;3.05;;
54430;SDS011;40342;52.998;5.862;2023-06-19T14:47:00;5.10;;;3.67;;
54430;SDS011;40342;52.998;5.862;2023-06-19T14:49:26;5.30;;;3.72;;
54430;SDS011;40342;52.998;5.862;2023-06-19T14:51:52;5.63;;;3.38;;